Time;durP1;ratioP1;P1;durP2;ratioP2;P2;SDS_P1;SDS_P2;PMS_P1;PMS_P2;Temp;Humidity;BMP_temperature;BMP_pressure;BME280_temperature;BME280_humidity;BME280_pressure;Samples;Min_cycle;Max_cycle;Signal;HPM_P1;HPM_P2
2021/09/10 00:00:22;;;;;;;3.42;3.13;;;;;;;;;;5072442;28;20028;-86
2021/09/10 00:02:48;;;;;;;3.45;3.03;;;;;;;;;;5070996;28;20021;-86
2021/09/10 00:05:14;;;;;;;3.90;3.05;;;;;;;;;;5070737;28;20043;-84
2021/09/10 00:07:40;;;;;;;3.55;2.67;;;;;;;;;;5071100;28;20023;-86
2021/09/10 00:10:06;;;;;;;3.08;2.78;;;;;;;;;;5071310;28;20119;-85
2021/09/10 00:12:32;;;;;;;3.80;2.75;;;;;;;;;;5072519;28;20036;-85
2021/09/10 00:14:58;;;;;;;3.70;2.78;;;;;;;;;;5072317;28;20476;-85
2021/09/10 00:17:24;;;;;;;3.55;2.88;;;;;;;;;;5071902;28;20095;-86
2021/09/10 00:19:50;;;;;;;4.68;3.38;;;;;;;;;;5072142;28;20460;-86
2021/09/10 00:22:16;;;;;;;3.17;2.70;;;;;;;;;;5072006;28;20104;-86
2021/09/10 00:24:42;;;;;;;3.53;2.83;;;;;;;;;;5072016;28;20021;-86
2021/09/10 00:27:08;;;;;;;5.63;2.60;;;;;;;;;;5071729;28;20025;-86
2021/09/10 00:29:34;;;;;;;3.85;2.95;;;;;;;;;;5072401;28;20017;-87
2021/09/10 00:32:00;;;;;;;3.78;2.85;;;;;;;;;;5071978;28;20039;-85
2021/09/10 00:34:26;;;;;;;3.65;2.97;;;;;;;;;;5071310;28;21023;-86
2021/09/10 00:36:52;;;;;;;3.13;2.83;;;;;;;;;;5072067;28;20024;-86
2021/09/10 00:39:21;;;;;;;4.30;2.80;;;;;;;;;;5071593;28;20031;-85
2021/09/10 00:41:47;;;;;;;2.92;2.30;;;;;;;;;;5071823;28;20020;-85
2021/09/10 00:44:13;;;;;;;2.88;2.35;;;;;;;;;;5071663;28;20033;-86
2021/09/10 00:46:39;;;;;;;3.13;2.55;;;;;;;;;;5071826;28;20027;-85
2021/09/10 00:49:05;;;;;;;4.63;2.22;;;;;;;;;;5070571;28;20027;-84
2021/09/10 00:51:32;;;;;;;3.00;1.95;;;;;;;;;;5071609;28;20052;-86
2021/09/10 00:53:58;;;;;;;3.47;2.60;;;;;;;;;;5071444;28;20558;-87
2021/09/10 00:56:24;;;;;;;3.92;2.47;;;;;;;;;;5071197;28;20066;-86
2021/09/10 00:58:50;;;;;;;3.67;2.35;;;;;;;;;;5071374;28;20111;-85
2021/09/10 01:01:16;;;;;;;3.22;2.17;;;;;;;;;;5071114;28;20031;-84
2021/09/10 01:03:42;;;;;;;3.22;2.40;;;;;;;;;;5071580;28;20032;-86
2021/09/10 01:06:10;;;;;;;3.55;2.70;;;;;;;;;;5071261;28;20027;-82
2021/09/10 01:08:38;;;;;;;3.50;2.60;;;;;;;;;;5071901;28;20039;-85
2021/09/10 01:11:04;;;;;;;2.28;1.83;;;;;;;;;;5071673;28;20070;-85
2021/09/10 01:13:30;;;;;;;5.90;2.50;;;;;;;;;;5070725;28;20378;-83
2021/09/10 01:15:56;;;;;;;4.57;2.22;;;;;;;;;;5070504;28;20479;-85
2021/09/10 01:18:22;;;;;;;2.60;2.25;;;;;;;;;;5070993;28;20052;-87
2021/09/10 01:20:49;;;;;;;3.20;2.35;;;;;;;;;;5071245;28;20032;-85
2021/09/10 01:23:16;;;;;;;2.60;2.13;;;;;;;;;;5070862;28;20032;-87
2021/09/10 01:25:42;;;;;;;3.97;2.10;;;;;;;;;;5071188;28;20025;-87
2021/09/10 01:28:08;;;;;;;3.80;1.88;;;;;;;;;;5070856;28;20073;-83
2021/09/10 01:30:35;;;;;;;2.28;1.80;;;;;;;;;;5071221;28;20033;-86
2021/09/10 01:33:03;;;;;;;2.50;2.10;;;;;;;;;;5071071;28;20028;-87
2021/09/10 01:35:29;;;;;;;2.50;1.80;;;;;;;;;;5070883;28;20483;-86
2021/09/10 01:37:56;;;;;;;4.30;2.20;;;;;;;;;;5071035;28;20016;-87
2021/09/10 01:40:22;;;;;;;2.67;1.90;;;;;;;;;;5070789;28;20032;-87
2021/09/10 01:42:48;;;;;;;4.57;2.15;;;;;;;;;;5070954;28;20028;-86
2021/09/10 01:45:15;;;;;;;2.60;2.00;;;;;;;;;;5070549;28;20028;-88
2021/09/10 01:47:41;;;;;;;2.42;1.63;;;;;;;;;;5070936;28;20377;-86
2021/09/10 01:50:09;;;;;;;4.03;1.95;;;;;;;;;;5070674;28;20507;-84
2021/09/10 01:52:35;;;;;;;2.83;1.98;;;;;;;;;;5071314;28;20050;-86
2021/09/10 01:55:01;;;;;;;2.72;1.95;;;;;;;;;;5070722;28;20089;-86
2021/09/10 01:57:27;;;;;;;2.88;1.83;;;;;;;;;;5069094;28;20510;-86
2021/09/10 01:59:53;;;;;;;2.83;2.00;;;;;;;;;;5070678;28;20126;-87
2021/09/10 02:02:19;;;;;;;2.17;1.52;;;;;;;;;;5070692;28;20055;-88
2021/09/10 02:04:45;;;;;;;2.10;1.77;;;;;;;;;;5070864;28;20365;-86
2021/09/10 02:07:11;;;;;;;3.55;1.80;;;;;;;;;;5069209;28;20035;-81
2021/09/10 02:09:37;;;;;;;3.75;1.45;;;;;;;;;;5070735;28;20108;-82
2021/09/10 02:12:04;;;;;;;2.42;1.73;;;;;;;;;;5070522;28;20115;-86
2021/09/10 02:14:31;;;;;;;2.67;1.98;;;;;;;;;;5070585;28;20036;-87
2021/09/10 02:16:57;;;;;;;2.25;1.67;;;;;;;;;;5070837;28;20064;-85
2021/09/10 02:19:23;;;;;;;2.30;1.63;;;;;;;;;;5070419;28;20098;-85
2021/09/10 02:21:49;;;;;;;2.63;1.90;;;;;;;;;;5070726;28;20028;-85
2021/09/10 02:24:15;;;;;;;2.78;1.50;;;;;;;;;;5070809;28;20495;-84
2021/09/10 02:26:41;;;;;;;3.00;1.60;;;;;;;;;;5072041;28;20029;-84
2021/09/10 02:29:07;;;;;;;2.33;1.50;;;;;;;;;;5073114;28;20128;-81
2021/09/10 02:31:33;;;;;;;2.60;1.50;;;;;;;;;;5074699;28;20535;-85
2021/09/10 02:33:59;;;;;;;2.60;1.60;;;;;;;;;;5072856;28;20060;-86
2021/09/10 02:36:25;;;;;;;2.63;1.48;;;;;;;;;;5073834;28;20032;-86
2021/09/10 02:38:51;;;;;;;2.17;1.42;;;;;;;;;;5072790;28;20457;-85
2021/09/10 02:41:17;;;;;;;2.25;1.48;;;;;;;;;;5073621;28;20511;-86
2021/09/10 02:43:43;;;;;;;2.03;1.52;;;24.60;99.90;;;;;;5074017;28;20064;-87
2021/09/10 02:46:08;;;;;;;2.22;1.20;;;23.90;98.40;;;;;;5073639;28;20012;-86
2021/09/10 02:48:34;;;;;;;3.17;1.58;;;23.90;98.40;;;;;;5074146;28;20074;-86
2021/09/10 02:51:01;;;;;;;3.17;1.83;;;23.90;98.40;;;;;;5073980;28;20025;-86
2021/09/10 02:53:26;;;;;;;2.10;1.42;;;23.80;98.40;;;;;;5073653;28;20460;-85
2021/09/10 02:55:52;;;;;;;3.05;1.25;;;23.80;98.40;;;;;;5073911;28;20077;-86
2021/09/10 02:58:18;;;;;;;2.95;1.42;;;23.90;98.40;;;;;;5073666;28;20515;-86
2021/09/10 03:00:43;;;;;;;2.00;1.27;;;23.90;98.40;;;;;;5073619;28;20173;-82
2021/09/10 03:03:09;;;;;;;2.25;1.38;;;23.90;98.40;;;;;;5073302;28;20024;-83
2021/09/10 03:05:35;;;;;;;2.75;1.70;;;23.80;98.70;;;;;;5072646;28;20060;-86
2021/09/10 03:08:00;;;;;;;2.17;1.30;;;23.80;98.30;;;;;;5072219;28;20035;-85
2021/09/10 03:10:26;;;;;;;3.25;1.45;;;23.80;98.30;;;;;;5072022;28;20390;-86
2021/09/10 03:12:52;;;;;;;2.80;1.55;;;23.80;98.30;;;;;;5073183;28;20037;-82
2021/09/10 03:15:18;;;;;;;2.78;1.33;;;23.80;98.30;;;;;;5073335;28;20017;-86
2021/09/10 03:17:43;;;;;;;3.13;1.40;;;23.80;98.30;;;;;;5073302;28;20028;-88
2021/09/10 03:20:11;;;;;;;2.83;1.38;;;23.80;98.30;;;;;;5073069;28;20171;-84
2021/09/10 03:22:36;;;;;;;2.28;1.27;;;23.80;98.30;;;;;;5073141;28;20030;-75
2021/09/10 03:25:04;;;;;;;2.60;1.27;;;23.80;98.30;;;;;;5073546;28;20103;-86
2021/09/10 03:27:30;;;;;;;2.33;1.40;;;23.80;98.20;;;;;;5073150;28;20041;-87
2021/09/10 03:29:55;;;;;;;2.38;1.40;;;23.80;98.20;;;;;;5073198;28;20424;-86
2021/09/10 03:32:21;;;;;;;2.20;1.40;;;23.80;98.20;;;;;;5071376;28;20364;-86
2021/09/10 03:34:47;;;;;;;1.83;1.17;;;23.80;98.10;;;;;;5073134;28;20036;-86
2021/09/10 03:37:13;;;;;;;1.75;1.10;;;23.80;98.10;;;;;;5072892;28;20541;-86
2021/09/10 03:39:40;;;;;;;2.72;1.30;;;23.80;98.10;;;;;;5072182;28;20056;-86
2021/09/10 03:42:05;;;;;;;1.88;1.30;;;23.80;98.00;;;;;;5073373;28;20024;-86
2021/09/10 03:44:31;;;;;;;2.50;1.10;;;23.80;98.00;;;;;;5071650;28;20511;-82
2021/09/10 03:46:59;;;;;;;3.58;1.40;;;23.80;98.00;;;;;;5072982;28;20492;-86
2021/09/10 03:49:26;;;;;;;1.92;1.20;;;23.80;98.10;;;;;;5072601;28;20412;-87
2021/09/10 03:51:52;;;;;;;1.90;1.10;;;23.80;98.00;;;;;;5072630;28;20017;-87
2021/09/10 03:54:17;;;;;;;1.63;1.00;;;23.80;98.00;;;;;;5072971;28;20067;-86
2021/09/10 03:56:43;;;;;;;2.17;1.25;;;23.80;98.10;;;;;;5071351;28;20033;-86
2021/09/10 03:59:09;;;;;;;3.55;1.30;;;23.70;97.90;;;;;;5072537;28;20031;-83
2021/09/10 04:01:34;;;;;;;1.33;0.95;;;23.80;98.00;;;;;;5072918;28;20101;-84
2021/09/10 04:04:00;;;;;;;1.80;1.23;;;23.70;98.00;;;;;;5072403;28;20027;-86
2021/09/10 04:06:25;;;;;;;1.90;1.25;;;23.70;97.90;;;;;;5072052;28;20025;-84
2021/09/10 04:08:51;;;;;;;1.23;0.90;;;23.70;98.00;;;;;;5072461;28;20108;-86
2021/09/10 04:11:17;;;;;;;1.48;1.27;;;23.70;98.00;;;;;;5072265;28;20040;-86
2021/09/10 04:13:43;;;;;;;1.98;1.15;;;;;;;;;;5072307;28;20051;-86
2021/09/10 04:16:09;;;;;;;2.15;1.23;;;;;;;;;;5070716;28;20107;-84
2021/09/10 04:18:35;;;;;;;2.03;1.20;;;;;;;;;;5071207;28;20124;-87
2021/09/10 04:21:01;;;;;;;3.70;1.30;;;;;;;;;;5070903;28;20103;-86
2021/09/10 04:23:27;;;;;;;1.95;1.10;;;;;;;;;;5071916;28;20341;-87
2021/09/10 04:25:53;;;;;;;1.70;1.08;;;;;;;;;;5072257;28;20546;-88
2021/09/10 04:28:19;;;;;;;1.95;1.20;;;;;;;;;;5071699;28;20016;-80
2021/09/10 04:30:45;;;;;;;1.67;0.90;;;;;;;;;;5072138;28;20020;-86
2021/09/10 04:33:11;;;;;;;2.70;1.40;;;;;;;;;;5071605;28;20072;-86
2021/09/10 04:35:37;;;;;;;2.10;0.90;;;;;;;;;;5071928;28;20020;-79
2021/09/10 04:38:03;;;;;;;1.33;0.95;;;;;;;;;;5072162;28;20025;-85
2021/09/10 04:40:29;;;;;;;1.42;1.08;;;;;;;;;;5071600;28;20050;-85
2021/09/10 04:42:55;;;;;;;3.08;1.25;;;;;;;;;;5071718;28;20025;-85
2021/09/10 04:45:22;;;;;;;1.35;1.00;;;;;;;;;;5070062;28;20488;-83
2021/09/10 04:47:48;;;;;;;1.90;1.20;;;;;;;;;;5071731;28;20021;-84
2021/09/10 04:50:15;;;;;;;1.33;0.98;;;;;;;;;;5070673;28;20103;-81
2021/09/10 04:52:41;;;;;;;1.95;1.10;;;;;;;;;;5071060;28;20025;-81
2021/09/10 04:55:08;;;;;;;3.05;1.33;;;;;;;;;;5071327;28;20032;-75
2021/09/10 04:57:34;;;;;;;1.88;1.20;;;;;;;;;;5070713;28;20448;-82
2021/09/10 05:00:00;;;;;;;2.80;1.10;;;;;;;;;;5071568;28;20067;-85
2021/09/10 05:02:26;;;;;;;2.45;1.20;;;;;;;;;;5071328;28;20025;-84
2021/09/10 05:04:52;;;;;;;2.03;1.00;;;;;;;;;;5071224;28;20027;-85
2021/09/10 05:07:18;;;;;;;2.13;1.10;;;;;;;;;;5070651;28;20024;-78
2021/09/10 05:09:44;;;;;;;2.72;1.30;;;;;;;;;;5071318;28;20024;-82
2021/09/10 05:12:10;;;;;;;1.80;1.00;;;;;;;;;;5069776;28;20039;-86
2021/09/10 05:14:36;;;;;;;3.53;1.27;;;;;;;;;;5071534;28;20395;-81
2021/09/10 05:17:02;;;;;;;1.45;1.02;;;;;;;;;;5071494;28;20467;-84
2021/09/10 05:19:28;;;;;;;2.67;1.38;;;;;;;;;;5067727;28;20028;-79
2021/09/10 05:21:54;;;;;;;2.30;1.20;;;;;;;;;;5070844;28;20032;-86
2021/09/10 05:24:20;;;;;;;2.38;1.13;;;;;;;;;;5070985;28;20113;-83
2021/09/10 05:26:46;;;;;;;2.75;1.52;;;;;;;;;;5071381;28;20020;-83
2021/09/10 05:29:13;;;;;;;3.15;1.48;;;;;;;;;;5071066;28;20056;-85
2021/09/10 05:31:39;;;;;;;1.23;1.02;;;;;;;;;;5071232;28;20020;-80
2021/09/10 05:34:05;;;;;;;2.25;1.20;;;;;;;;;;5071137;28;20499;-81
2021/09/10 05:36:31;;;;;;;1.60;1.02;;;;;;;;;;5070646;28;20052;-80
2021/09/10 05:38:57;;;;;;;1.80;0.95;;;;;;;;;;5071081;28;20036;-84
2021/09/10 05:41:23;;;;;;;1.40;0.90;;;;;;;;;;5070851;28;20116;-85
2021/09/10 05:43:49;;;;;;;2.88;1.30;;;;;;;;;;5070964;28;20442;-84
2021/09/10 05:46:15;;;;;;;1.80;1.30;;;;;;;;;;5070594;28;20024;-82
2021/09/10 05:48:41;;;;;;;2.42;1.45;;;;;;;;;;5069417;28;20032;-80
2021/09/10 05:51:11;;;;;;;2.10;1.00;;;;;;;;;;5070524;28;20515;-83
2021/09/10 05:53:37;;;;;;;2.25;1.20;;;;;;;;;;5071181;28;20067;-83
2021/09/10 05:56:03;;;;;;;2.13;1.00;;;;;;;;;;5071340;28;20488;-82
2021/09/10 05:58:29;;;;;;;2.08;1.10;;;;;;;;;;5070562;28;20036;-83
2021/09/10 06:00:55;;;;;;;2.10;1.30;;;;;;;;;;5071519;28;20099;-82
2021/09/10 06:03:21;;;;;;;3.58;1.38;;;;;;;;;;5074393;28;20029;-83
2021/09/10 06:05:48;;;;;;;2.10;1.40;;;;;;;;;;5074884;28;20017;-84
2021/09/10 06:08:14;;;;;;;2.92;1.50;;;;;;;;;;5074458;28;20424;-82
2021/09/10 06:10:41;;;;;;;3.67;1.58;;;;;;;;;;5074669;28;20029;-82
2021/09/10 06:13:07;;;;;;;4.75;2.53;;;;;;;;;;5073405;28;20454;-84
2021/09/10 06:15:33;;;;;;;8.68;2.33;;;;;;;;;;5074778;28;20074;-85
2021/09/10 06:17:59;;;;;;;5.63;2.38;;;;;;;;;;5074273;28;20028;-84
2021/09/10 06:20:25;;;;;;;2.97;2.13;;;;;;;;;;5074212;28;20020;-85
2021/09/10 06:22:51;;;;;;;4.78;2.40;;;;;;;;;;5074581;28;20442;-84
2021/09/10 06:25:17;;;;;;;5.47;2.75;;;;;;;;;;5074187;28;20020;-85
2021/09/10 06:27:43;;;;;;;3.65;2.53;;;;;;;;;;5074172;28;20028;-85
2021/09/10 06:30:09;;;;;;;5.93;2.88;;;;;;;;;;5074216;28;20027;-85
2021/09/10 06:32:35;;;;;;;10.10;2.88;;;;;;;;;;5074478;28;20035;-86
2021/09/10 06:35:02;;;;;;;5.72;2.72;;;;;;;;;;5074291;28;20070;-84
2021/09/10 06:37:28;;;;;;;4.00;2.10;;;;;;;;;;5074088;28;20403;-89
2021/09/10 06:39:54;;;;;;;4.35;2.10;;;;;;;;;;5074302;28;20136;-88
2021/09/10 06:42:20;;;;;;;6.97;2.45;;;;;;;;;;5074472;28;20024;-92
2021/09/10 06:44:50;;;;;;;5.60;2.75;;;;;;;;;;5074511;28;20081;-90
2021/09/10 06:47:16;;;;;;;9.02;2.58;;;;;;;;;;5073938;28;20392;-85
2021/09/10 06:49:42;;;;;;;5.22;2.38;;;;;;;;;;5074083;28;20499;-86
2021/09/10 06:52:08;;;;;;;4.18;2.30;;;;;;;;;;5072472;28;20484;-87
2021/09/10 06:54:34;;;;;;;7.30;2.17;;;;;;;;;;5074106;28;20040;-81
2021/09/10 06:57:00;;;;;;;6.88;1.90;;;;;;;;;;5073847;28;20384;-81
2021/09/10 06:59:26;;;;;;;8.05;2.13;;;;;;;;;;5073644;28;20570;-87
2021/09/10 07:01:52;;;;;;;6.88;2.10;;;;;;;;;;5073442;28;20107;-80
2021/09/10 07:04:19;;;;;;;6.53;2.15;;;;;;;;;;5073783;28;20419;-80
2021/09/10 07:06:45;;;;;;;8.23;2.08;;;;;;;;;;5073625;28;20032;-82
2021/09/10 07:09:11;;;;;;;3.97;1.75;;;;;;;;;;5072549;28;20021;-82
2021/09/10 07:11:37;;;;;;;6.47;1.73;;;;;;;;;;5072734;28;20064;-78
2021/09/10 07:14:04;;;;;;;3.13;1.73;;;;;;;;;;5072613;28;20229;-81
2021/09/10 07:16:30;;;;;;;8.43;2.70;;;;;;;;;;5072963;28;20028;-82
2021/09/10 07:18:56;;;;;;;4.25;1.75;;;;;;;;;;5072141;28;20048;-82
2021/09/10 07:21:22;;;;;;;3.75;1.73;;;;;;;;;;5073124;28;20065;-82
2021/09/10 07:23:48;;;;;;;5.75;1.60;;;;;;;;;;5073365;28;20017;-80
2021/09/10 07:26:15;;;;;;;5.72;1.50;;;;;;;;;;5072378;28;20024;-82
2021/09/10 07:28:41;;;;;;;3.90;1.60;;;;;;;;;;5073336;28;20021;-82
2021/09/10 07:31:07;;;;;;;4.45;1.75;;;;;;;;;;5073037;28;20597;-78
2021/09/10 07:33:36;;;;;;;3.65;1.52;;;;;;;;;;5073436;28;20082;-81
2021/09/10 07:36:03;;;;;;;5.63;2.22;;;;;;;;;;5073365;28;20021;-82
2021/09/10 07:38:29;;;;;;;8.05;2.05;;;;;;;;;;5072773;28;20027;-82
2021/09/10 07:40:55;;;;;;;5.15;1.50;;;;;;;;;;5072898;28;20470;-82
2021/09/10 07:43:21;;;;;;;7.75;1.92;;;;;;;;;;5072548;28;20024;-81
2021/09/10 07:45:47;;;;;;;3.28;1.75;;;;;;;;;;5072982;28;20068;-81
2021/09/10 07:48:13;;;;;;;4.78;1.80;;;;;;;;;;5072648;28;20019;-82
2021/09/10 07:50:39;;;;;;;5.85;1.70;;;;;;;;;;5072908;28;20020;-82
2021/09/10 07:53:05;;;;;;;2.90;1.50;;;;;;;;;;5073098;28;20094;-83
2021/09/10 07:55:31;;;;;;;4.32;1.48;;;;;;;;;;5072530;28;20020;-82
2021/09/10 07:57:57;;;;;;;3.20;1.67;;;;;;;;;;5072653;28;20047;-82
2021/09/10 08:00:23;;;;;;;3.28;1.88;;;;;;;;;;5072360;28;20028;-82
2021/09/10 08:02:50;;;;;;;4.80;1.58;;;;;;;;;;5072453;28;20033;-82
2021/09/10 08:05:16;;;;;;;3.95;1.60;;;;;;;;;;5072401;28;20021;-82
2021/09/10 08:07:43;;;;;;;2.53;1.50;;;;;;;;;;5072531;28;20051;-82
2021/09/10 08:10:16;;;;;;;6.75;2.08;;;;;;;;;;5072048;28;20035;-82
2021/09/10 08:12:42;;;;;;;2.50;1.50;;;;;;;;;;5072082;28;20056;-82
2021/09/10 08:15:09;;;;;;;2.58;1.42;;;;;;;;;;5072083;28;20111;-81
2021/09/10 08:17:35;;;;;;;3.13;1.80;;;;;;;;;;5072484;28;20025;-82
2021/09/10 08:20:01;;;;;;;2.70;1.40;;;;;;;;;;5072313;28;20028;-82
2021/09/10 08:22:27;;;;;;;4.32;1.70;;;;;;;;;;5072023;28;20325;-82
2021/09/10 08:24:53;;;;;;;3.28;1.70;;;;;;;;;;5071977;28;20099;-81
2021/09/10 08:27:19;;;;;;;4.68;1.58;;;;;;;;;;5071632;28;20063;-81
2021/09/10 08:29:45;;;;;;;2.85;1.23;;;;;;;;;;5072160;28;20052;-82
2021/09/10 08:32:11;;;;;;;2.97;1.48;;;;;;;;;;5071656;28;20499;-82
2021/09/10 08:34:37;;;;;;;4.65;1.70;;;;;;;;;;5072122;28;20029;-79
2021/09/10 08:37:03;;;;;;;3.03;1.40;;;;;;;;;;5072219;28;20480;-82
2021/09/10 08:39:29;;;;;;;2.67;1.20;;;;;;;;;;5070196;28;20503;-81
2021/09/10 08:41:56;;;;;;;1.98;1.15;;;;;;;;;;5071871;28;20025;-82
2021/09/10 08:44:23;;;;;;;3.28;1.20;;;;;;;;;;5071483;28;20020;-82
2021/09/10 08:46:49;;;;;;;3.00;1.73;;;;;;;;;;5071663;28;20083;-82
2021/09/10 08:49:15;;;;;;;3.33;1.58;;;;;;;;;;5071519;28;20028;-82
2021/09/10 08:51:42;;;;;;;4.25;1.48;;;;;;;;;;5071742;28;20032;-82
2021/09/10 08:54:08;;;;;;;2.70;1.58;;;;;;;;;;5071378;28;20040;-82
2021/09/10 08:56:34;;;;;;;3.97;1.30;;;;;;;;;;5071903;28;20024;-82
2021/09/10 08:59:16;;;;;;;7.13;1.50;;;;;;;;;;5071668;28;20029;-82
2021/09/10 09:01:46;;;;;;;2.58;1.50;;;;;;;;;;5071610;28;20476;-82
2021/09/10 09:04:13;;;;;;;3.17;1.70;;;;;;;;;;5071255;28;20422;-82
2021/09/10 09:06:39;;;;;;;3.25;1.55;;;;;;;;;;5071574;28;20028;-82
2021/09/10 09:09:05;;;;;;;3.50;1.40;;;;;;;;;;5071699;28;20040;-82
2021/09/10 09:11:31;;;;;;;3.83;1.80;;;;;;;;;;5069872;28;20097;-82
2021/09/10 09:14:02;;;;;;;2.67;1.23;;;;;;;;;;5071103;28;20530;-82
2021/09/10 09:16:30;;;;;;;1.65;1.10;;;;;;;;;;5070933;28;20158;-82
2021/09/10 09:18:58;;;;;;;2.17;1.33;;;;;;;;;;5071063;28;20016;-80
2021/09/10 09:21:33;;;;;;;2.13;1.30;;;;;;;;;;5070921;28;20470;-81
2021/09/10 09:24:15;;;;;;;2.38;1.13;;;;;;;;;;5071160;28;20024;-81
2021/09/10 09:26:42;;;;;;;2.58;1.30;;;;;;;;;;5071145;28;20013;-81
2021/09/10 09:29:09;;;;;;;2.83;1.30;;;;;;;;;;5071036;28;20035;-81
2021/09/10 09:31:36;;;;;;;2.97;1.55;;;;;;;;;;5071268;28;20016;-81
2021/09/10 09:34:02;;;;;;;3.22;1.80;;;;;;;;;;5071028;28;20033;-81
2021/09/10 09:36:28;;;;;;;4.20;1.45;;;;;;;;;;5070397;28;20103;-82
2021/09/10 09:38:55;;;;;;;2.78;1.45;;;;;;;;;;5069688;28;20039;-82
2021/09/10 09:41:22;;;;;;;3.95;1.75;;;;;;;;;;5070972;28;20012;-82
2021/09/10 09:43:52;;;;;;;2.40;1.48;;;;;;;;;;5070871;28;20069;-80
2021/09/10 09:46:20;;;;;;;3.75;1.88;;;;;;;;;;5070898;28;20024;-81
2021/09/10 09:48:47;;;;;;;3.08;1.95;;;;;;;;;;5070888;28;20032;-82
2021/09/10 09:51:15;;;;;;;2.80;1.65;;;;;;;;;;5070786;28;20051;-82
2021/09/10 09:53:43;;;;;;;3.47;1.80;;;;;;;;;;5070748;28;20032;-81
2021/09/10 09:56:09;;;;;;;6.10;2.00;;;;;;;;;;5070834;28;20025;-79
2021/09/10 09:58:36;;;;;;;3.03;2.00;;;;;;;;;;5071252;28;20029;-81
2021/09/10 10:01:03;;;;;;;3.08;2.00;;;;;;;;;;5071296;28;20033;-81
2021/09/10 10:03:29;;;;;;;2.63;2.17;;;;;;;;;;5070642;28;20047;-81
2021/09/10 10:06:03;;;;;;;2.35;1.90;;;;;;;;;;5070776;28;20025;-81
2021/09/10 10:08:38;;;;;;;4.00;2.88;;;;;;;;;;5069221;28;20029;-80
2021/09/10 10:11:14;;;;;;;3.37;2.60;;;;;;;;;;5071025;28;20098;-82
2021/09/10 10:13:44;;;;;;;4.28;3.40;;;;;;;;;;5070456;28;20043;-82
2021/09/10 10:16:30;;;;;;;4.18;3.10;;;;;;;;;;5070774;28;20469;-82
2021/09/10 10:18:56;;;;;;;;;;;;;;;;;;5071135;28;20032;-81
2021/09/10 10:21:21;;;;;;;;;;;;;;;;;;5070646;28;19904;-81
2021/09/10 10:23:49;;;;;;;3.55;3.00;;;;;;;;;;5070447;28;20380;-82
2021/09/10 10:26:32;;;;;;;3.25;2.95;;;;;;;;;;5070341;28;20025;-81
2021/09/10 10:29:08;;;;;;;4.05;3.13;;;;;;;;;;5070671;28;20068;-82
2021/09/10 10:31:53;;;;;;;3.90;3.22;;;;;;;;;;5070929;28;20052;-79
2021/09/10 10:34:19;;;;;;;3.25;2.90;;;;;;;;;;5069992;28;20040;-80
2021/09/10 10:36:46;;;;;;;3.90;3.15;;;;;;;;;;5069252;28;20373;-82
2021/09/10 10:39:13;;;;;;;4.57;2.88;;;;;;;;;;5070252;28;20025;-81
2021/09/10 10:41:46;;;;;;;3.80;3.30;;;;;;;;;;5069327;28;20108;-82
2021/09/10 10:44:31;;;;;;;3.38;2.92;;;;;;;;;;5070227;28;20369;-82
2021/09/10 10:47:09;;;;;;;4.32;3.30;;;;;;;;;;5068915;28;20803;-82
2021/09/10 10:49:42;;;;;;;3.70;3.00;;;;;;;;;;5072498;28;20097;-80
2021/09/10 10:52:26;;;;;;;3.42;3.08;;;;;;;;;;5073712;28;20032;-82
2021/09/10 10:55:10;;;;;;;3.67;3.35;;;;;;;;;;5073955;28;20036;-80
2021/09/10 10:57:36;;;;;;;3.60;3.10;;;;;;;;;;5074272;28;20047;-82
2021/09/10 11:00:22;;;;;;;3.83;2.78;;;;;;;;;;5074081;28;20424;-76
2021/09/10 11:02:48;;;;;;;;;;;;;;;;;;5074411;28;20028;-82
2021/09/10 11:05:14;;;;;;;;;;;;;;;;;;5073872;28;19916;-80
2021/09/10 11:07:44;;;;;;;3.53;3.15;;;;;;;;;;5073771;28;19904;-81
2021/09/10 11:10:12;;;;;;;4.57;2.80;;;;;;;;;;5072020;28;20033;-81
2021/09/10 11:12:39;;;;;;;4.45;3.20;;;;;;;;;;5073782;28;20033;-79
2021/09/10 11:15:22;;;;;;;3.70;3.05;;;;;;;;;;5073791;28;20086;-81
2021/09/10 11:17:52;;;;;;;3.90;3.08;;;;;;;;;;5073373;28;20048;-82
2021/09/10 11:20:24;;;;;;;3.63;3.30;;;;;;;;;;5072984;28;20031;-81
2021/09/10 11:22:50;;;;;;;4.85;3.50;;;;;;;;;;5073593;28;20028;-78
2021/09/10 11:25:16;;;;;;;5.15;3.15;;;;;;;;;;5073095;28;20096;-81
2021/09/10 11:27:42;;;;;;;3.35;2.80;;;;;;;;;;5073260;28;20532;-81
2021/09/10 11:30:10;;;;;;;4.90;3.20;;;;;;;;;;5072983;28;20103;-81
2021/09/10 11:32:36;;;;;;;3.53;2.80;;;;;;;;;;5073315;28;20529;-81
2021/09/10 11:35:03;;;;;;;3.88;2.80;;;;;;;;;;5072305;28;20107;-82
2021/09/10 11:37:30;;;;;;;4.72;3.03;;;;;;;;;;5073024;28;20051;-82
2021/09/10 11:39:56;;;;;;;5.97;3.33;;;;;;;;;;5072948;28;20028;-82
2021/09/10 11:42:34;;;;;;;3.25;2.95;;;;;;;;;;5072719;28;20048;-82
2021/09/10 11:45:03;;;;;;;3.10;2.65;;;;;;;;;;5071781;28;20025;-82
2021/09/10 11:47:29;;;;;;;3.95;2.97;;;;;;;;;;5072613;28;20052;-81
2021/09/10 11:50:03;;;;;;;3.50;3.20;;;;;;;;;;5072867;28;20021;-81
2021/09/10 11:52:30;;;;;;;4.15;2.97;;;;;;;;;;5072450;28;20017;-79
2021/09/10 11:55:09;;;;;;;3.03;2.58;;;;;;;;;;5072877;28;20396;-83
2021/09/10 11:57:36;;;;;;;4.22;2.95;;;;;;;;;;5072808;28;20033;-82
2021/09/10 12:00:02;;;;;;;3.33;2.50;;;;;;;;;;5072463;28;20016;-80
2021/09/10 12:02:28;;;;;;;4.75;3.17;;;;;;;;;;5072491;28;20070;-82
2021/09/10 12:04:55;;;;;;;3.90;3.00;;;;;;;;;;5072699;28;20025;-81
2021/09/10 12:07:26;;;;;;;3.33;3.03;;;;;;;;;;5070967;28;20085;-82
2021/09/10 12:09:52;;;;;;;3.35;3.00;;;;;;;;;;5072385;28;20511;-82
2021/09/10 12:12:23;;;;;;;3.70;2.60;;;;;;;;;;5072023;28;20031;-80
2021/09/10 12:14:55;;;;;;;3.38;2.90;;;;;;;;;;5072498;28;20116;-82
2021/09/10 12:17:24;;;;;;;7.88;3.00;;;;;;;;;;5072030;28;20101;-83
2021/09/10 12:19:52;;;;;;;3.80;2.45;;;;;;;;;;5072181;28;20370;-83
2021/09/10 12:22:29;;;;;;;3.38;2.67;;;;;;;;;;5072097;28;20464;-82
2021/09/10 12:25:14;;;;;;;6.32;2.92;;;;;;;;;;5072006;28;20103;-81
2021/09/10 12:27:40;;;;;;;3.47;2.67;;;;;;;;;;5072096;28;20068;-82
2021/09/10 12:30:09;;;;;;;3.92;2.80;;;;;;;;;;5070887;28;20059;-83
2021/09/10 12:32:35;;;;;;;4.25;2.70;;;;;;;;;;5070849;28;20024;-82
2021/09/10 12:35:01;;;;;;;2.75;2.28;;;;;;;;;;5072095;28;20086;-82
2021/09/10 12:37:31;;;;;;;3.20;2.53;;;;;;;;;;5071595;28;20396;-82
2021/09/10 12:39:57;;;;;;;3.63;2.50;;;;;;;;;;5071800;28;20505;-81
2021/09/10 12:42:23;;;;;;;3.47;2.63;;;;;;;;;;5070388;28;20024;-83
2021/09/10 12:44:49;;;;;;;3.63;2.65;;;;;;;;;;5071718;28;20051;-82
2021/09/10 12:47:16;;;;;;;2.75;2.38;;;;;;;;;;5070032;28;20480;-83
2021/09/10 12:49:42;;;;;;;2.33;2.13;;;;;;;;;;5071457;28;20024;-82
2021/09/10 12:52:08;;;;;;;4.07;2.28;;;;;;;;;;5071537;28;20464;-80
2021/09/10 12:54:34;;;;;;;3.08;2.10;;;;;;;;;;5071911;28;20036;-82
2021/09/10 12:57:00;;;;;;;5.22;2.70;;;;;;;;;;5071746;28;20162;-82
2021/09/10 12:59:26;;;;;;;3.20;2.40;;;;;;;;;;5071375;28;20513;-83
2021/09/10 13:01:53;;;;;;;3.35;2.70;;;;;;;;;;5071650;28;20021;-81
2021/09/10 13:04:19;;;;;;;3.70;2.47;;;;;;;;;;5071017;28;20025;-82
2021/09/10 13:06:45;;;;;;;3.53;2.38;;;;;;;;;;5071597;28;20075;-82
2021/09/10 13:09:11;;;;;;;3.83;2.45;;;;;;;;;;5071310;28;20025;-81
2021/09/10 13:11:37;;;;;;;3.22;2.13;;;;;;;;;;5070700;28;20055;-81
2021/09/10 13:14:03;;;;;;;3.65;2.50;;;;;;;;;;5071443;28;20480;-80
2021/09/10 13:16:30;;;;;;;3.28;2.28;;;;;;;;;;5071157;28;20066;-82
2021/09/10 13:18:56;;;;;;;2.85;2.47;;;;;;;;;;5071066;28;20025;-78
2021/09/10 13:21:22;;;;;;;3.03;1.77;;;;;;;;;;5071099;28;20016;-75
2021/09/10 13:23:48;;;;;;;3.50;2.03;;;;;;;;;;5071254;28;20039;-80
2021/09/10 13:26:14;;;;;;;3.67;2.58;;;;;;;;;;5071075;28;20028;-79
2021/09/10 13:28:40;;;;;;;2.72;2.22;;;;;;;;;;5071415;28;20437;-82
2021/09/10 13:31:07;;;;;;;2.90;2.17;;;;;;;;;;5071460;28;20021;-81
2021/09/10 13:33:33;;;;;;;2.63;2.30;;;;;;;;;;5071346;28;20472;-82
2021/09/10 13:35:59;;;;;;;2.78;1.90;;;;;;;;;;5071246;28;20039;-82
2021/09/10 13:38:25;;;;;;;4.40;2.55;;;;;;;;;;5070895;28;20028;-80
2021/09/10 13:40:51;;;;;;;2.95;2.10;;;;;;;;;;5071004;28;20017;-82
2021/09/10 13:43:17;;;;;;;3.17;2.10;;;;;;;;;;5070701;28;20031;-82
2021/09/10 13:45:43;;;;;;;3.30;2.15;;;;;;;;;;5070918;28;20024;-81
2021/09/10 13:48:09;;;;;;;5.60;2.70;;;;;;;;;;5070456;28;20446;-80
2021/09/10 13:50:35;;;;;;;2.83;1.63;;;;;;;;;;5070042;28;20025;-82
2021/09/10 13:53:01;;;;;;;2.40;2.03;;;;;;;;;;5070942;28;20086;-82
2021/09/10 13:55:27;;;;;;;2.88;2.03;;;;;;;;;;5070592;28;20074;-80
2021/09/10 13:57:53;;;;;;;2.15;1.88;;;;;;;;;;5070671;28;20029;-81
2021/09/10 14:00:20;;;;;;;3.00;2.20;;;;;;;;;;5070446;28;20025;-81
2021/09/10 14:02:46;;;;;;;4.15;2.13;;;;;;;;;;5070362;28;20035;-81
2021/09/10 14:05:12;;;;;;;3.00;2.33;;;;;;;;;;5070775;28;20503;-81
2021/09/10 14:07:38;;;;;;;2.92;2.30;;;;;;;;;;5070783;28;20017;-80
2021/09/10 14:10:05;;;;;;;2.97;2.10;;;;;;;;;;5070912;28;20043;-79
2021/09/10 14:12:31;;;;;;;2.47;1.90;;;;;;;;;;5070286;28;20017;-82
2021/09/10 14:14:57;;;;;;;3.13;1.95;;;;;;;;;;5070838;28;20097;-82
2021/09/10 14:17:23;;;;;;;2.10;1.83;;;;;;;;;;5070247;28;20021;-82
2021/09/10 14:19:49;;;;;;;2.67;1.70;;;;;;;;;;5069440;28;20024;-82
2021/09/10 14:22:15;;;;;;;3.20;1.88;;;;;;;;;;5071540;28;20044;-81
2021/09/10 14:24:42;;;;;;;2.60;1.95;;;;;;;;;;5074493;28;20020;-80
2021/09/10 14:27:08;;;;;;;3.15;2.17;;;;;;;;;;5074120;28;20024;-81
2021/09/10 14:29:34;;;;;;;4.28;2.03;;;;;;;;;;5074549;28;20082;-82